createdAt,value
2023-05-09T00:01:13.142Z,17.02
2023-05-09T00:03:40.682Z,16.38
2023-05-09T00:06:07.420Z,17.17
2023-05-09T00:08:33.936Z,16.05
2023-05-09T00:11:01.464Z,17.77
2023-05-09T00:13:28.513Z,16.27
2023-05-09T00:15:55.054Z,19.80
2023-05-09T00:18:22.176Z,18.25
2023-05-09T00:20:49.956Z,19.23
2023-05-09T00:23:16.767Z,17.75
2023-05-09T00:25:43.485Z,19.45
2023-05-09T00:28:10.083Z,18.48
2023-05-09T00:30:36.693Z,20.15
2023-05-09T00:33:03.270Z,19.63
2023-05-09T00:35:31.263Z,22.20
2023-05-09T00:37:57.862Z,19.50
2023-05-09T00:40:24.340Z,17.75
2023-05-09T00:42:51.509Z,17.95
2023-05-09T00:45:18.089Z,21.38
2023-05-09T00:47:44.649Z,21.42
2023-05-09T00:50:11.262Z,18.95
2023-05-09T00:52:38.855Z,18.38
2023-05-09T00:55:08.255Z,19.98
2023-05-09T00:57:34.958Z,19.05
2023-05-09T01:00:01.738Z,19.20
2023-05-09T01:02:28.439Z,21.95
2023-05-09T01:04:55.020Z,23.10
2023-05-09T01:07:35.383Z,17.95
2023-05-09T01:10:29.177Z,23.02
2023-05-09T01:13:10.047Z,22.10
2023-05-09T01:16:23.726Z,21.33
2023-05-09T01:19:01.153Z,22.30
2023-05-09T01:21:30.446Z,22.25
2023-05-09T01:24:31.043Z,21.02
2023-05-09T01:27:18.156Z,21.45
2023-05-09T01:29:48.943Z,21.35
2023-05-09T01:32:19.472Z,21.85
2023-05-09T01:34:49.622Z,20.90
2023-05-09T01:37:19.560Z,20.42
2023-05-09T01:39:49.888Z,20.77
2023-05-09T01:42:18.837Z,21.10
2023-05-09T01:44:47.113Z,22.05
2023-05-09T01:47:16.592Z,23.23
2023-05-09T01:49:45.533Z,22.90
2023-05-09T01:52:15.129Z,22.60
2023-05-09T01:54:43.417Z,22.17
2023-05-09T01:57:12.105Z,22.90
2023-05-09T01:59:44.014Z,25.95
2023-05-09T02:02:11.268Z,26.00
2023-05-09T02:04:40.576Z,23.40
2023-05-09T02:07:08.110Z,23.90
2023-05-09T02:09:34.862Z,25.75
2023-05-09T02:12:01.967Z,25.58
2023-05-09T02:14:28.464Z,23.85
2023-05-09T02:16:55.064Z,24.35
2023-05-09T02:19:21.708Z,24.55
2023-05-09T02:21:50.546Z,25.17
2023-05-09T02:24:17.211Z,26.50
2023-05-09T02:26:44.100Z,29.63
2023-05-09T02:29:11.059Z,28.25
2023-05-09T02:31:41.063Z,26.40
2023-05-09T02:34:09.685Z,29.27
2023-05-09T02:36:36.609Z,28.70
2023-05-09T02:39:03.233Z,27.08
2023-05-09T02:41:30.182Z,27.50
2023-05-09T02:43:56.678Z,27.90
2023-05-09T02:46:23.236Z,28.02
2023-05-09T02:48:49.771Z,29.55
2023-05-09T02:51:16.229Z,27.70
2023-05-09T02:53:42.660Z,28.10
2023-05-09T02:56:10.823Z,27.38
2023-05-09T02:58:37.318Z,32.00
2023-05-09T03:01:03.988Z,32.15
2023-05-09T03:03:34.119Z,29.80
2023-05-09T03:06:00.797Z,31.33
2023-05-09T03:08:27.236Z,28.92
2023-05-09T03:10:53.984Z,32.17
2023-05-09T03:13:20.491Z,32.40
2023-05-09T03:15:47.025Z,31.05
2023-05-09T03:18:13.547Z,31.15
2023-05-09T03:20:39.982Z,30.58
2023-05-09T03:23:06.444Z,29.35
2023-05-09T03:25:35.599Z,28.50
2023-05-09T03:28:02.046Z,29.02
2023-05-09T03:30:28.491Z,29.55
2023-05-09T03:32:54.971Z,33.47
2023-05-09T03:35:21.533Z,31.20
2023-05-09T03:37:47.986Z,31.33
2023-05-09T03:40:14.552Z,28.45
2023-05-09T03:42:41.029Z,28.80
2023-05-09T03:45:08.043Z,31.83
2023-05-09T03:47:34.650Z,30.15
2023-05-09T03:50:01.146Z,29.83
2023-05-09T03:52:27.619Z,29.77
2023-05-09T03:54:54.142Z,31.45
2023-05-09T03:57:20.660Z,31.65
2023-05-09T03:59:47.168Z,32.85
2023-05-09T04:02:13.724Z,33.13
2023-05-09T04:04:40.399Z,32.42
2023-05-09T04:07:06.827Z,29.13
2023-05-09T04:09:33.306Z,27.10
2023-05-09T04:11:59.780Z,34.60
2023-05-09T04:14:26.237Z,31.63
2023-05-09T04:16:52.780Z,34.00
2023-05-09T04:19:19.309Z,37.03
2023-05-09T04:21:45.771Z,34.15
2023-05-09T04:24:12.380Z,39.97
2023-05-09T04:26:39.337Z,34.03
2023-05-09T04:29:06.049Z,34.13
2023-05-09T04:31:32.765Z,39.00
2023-05-09T04:33:59.387Z,36.00
2023-05-09T04:36:25.860Z,35.72
2023-05-09T04:38:52.368Z,39.25
2023-05-09T04:41:18.927Z,42.15
2023-05-09T04:43:45.987Z,41.75
2023-05-09T04:46:12.471Z,42.00
2023-05-09T04:48:38.994Z,42.70
2023-05-09T04:51:05.464Z,41.38
2023-05-09T04:53:32.050Z,41.03
2023-05-09T04:55:58.516Z,44.40
2023-05-09T04:58:26.551Z,42.55
2023-05-09T05:00:53.235Z,46.22
2023-05-09T05:03:19.716Z,45.90
2023-05-09T05:05:46.266Z,38.92
2023-05-09T05:08:12.892Z,44.40
2023-05-09T05:10:39.399Z,46.03
2023-05-09T05:13:05.936Z,44.17
2023-05-09T05:15:32.392Z,43.15
2023-05-09T05:17:58.933Z,45.83
2023-05-09T05:20:25.639Z,51.40
2023-05-09T05:22:52.123Z,42.78
2023-05-09T05:25:18.584Z,51.28
2023-05-09T05:27:45.011Z,51.30
2023-05-09T05:30:12.119Z,46.08
2023-05-09T05:32:38.596Z,54.85
2023-05-09T05:35:05.558Z,54.55
2023-05-09T05:37:32.091Z,56.20
2023-05-09T05:39:58.624Z,52.78
2023-05-09T05:42:25.373Z,57.30
2023-05-09T05:44:51.790Z,59.67
2023-05-09T05:47:18.247Z,60.55
2023-05-09T05:49:45.224Z,53.00
2023-05-09T05:52:11.676Z,75.20
2023-05-09T05:54:38.089Z,66.28
2023-05-09T05:57:04.590Z,62.92
2023-05-09T05:59:31.046Z,63.63
2023-05-09T06:01:57.523Z,76.13
2023-05-09T06:04:23.991Z,80.72
2023-05-09T06:06:51.058Z,78.53
2023-05-09T06:09:17.511Z,78.43
2023-05-09T06:11:43.974Z,82.28
2023-05-09T06:14:10.551Z,100.00
2023-05-09T06:16:37.022Z,81.28
2023-05-09T06:19:03.488Z,75.65
2023-05-09T06:21:30.268Z,76.22
2023-05-09T06:26:26.269Z,69.63
2023-05-09T06:28:52.734Z,80.72
2023-05-09T06:31:19.365Z,73.10
2023-05-09T06:33:45.861Z,69.72
2023-05-09T06:36:12.379Z,68.78
2023-05-09T06:38:38.857Z,63.03
2023-05-09T06:41:05.658Z,52.80
2023-05-09T06:43:32.149Z,53.58
2023-05-09T06:45:58.620Z,51.05
2023-05-09T06:48:25.170Z,53.40
2023-05-09T06:50:51.585Z,44.20
2023-05-09T06:53:18.247Z,47.15
2023-05-09T06:55:44.855Z,38.42
2023-05-09T06:58:12.038Z,40.30
2023-05-09T07:00:38.535Z,39.70
2023-05-09T07:03:07.471Z,35.85
2023-05-09T07:05:34.687Z,36.20
2023-05-09T07:08:01.290Z,33.50
2023-05-09T07:10:28.146Z,36.97
2023-05-09T07:12:54.686Z,32.78
2023-05-09T07:15:36.775Z,29.98
2023-05-09T07:18:06.823Z,34.08
2023-05-09T07:20:33.429Z,27.02
2023-05-09T07:23:00.028Z,28.33
2023-05-09T07:25:26.577Z,30.48
2023-05-09T07:27:53.061Z,25.65
2023-05-09T07:30:19.562Z,27.23
2023-05-09T07:32:46.092Z,28.95
2023-05-09T07:35:13.048Z,24.15
2023-05-09T07:37:40.597Z,30.88
2023-05-09T07:40:07.695Z,27.40
2023-05-09T07:42:34.267Z,24.17
2023-05-09T07:45:04.123Z,29.88
2023-05-09T07:47:30.660Z,25.60
2023-05-09T07:49:57.198Z,20.63
2023-05-09T07:52:24.025Z,22.63
2023-05-09T07:54:50.651Z,20.95
2023-05-09T07:57:17.265Z,22.83
2023-05-09T07:59:43.822Z,22.45
2023-05-09T08:02:10.374Z,20.73
2023-05-09T08:04:38.482Z,21.40
2023-05-09T08:07:05.160Z,19.25
2023-05-09T08:09:31.589Z,7.10
2023-05-09T08:11:58.502Z,20.27
2023-05-09T08:14:25.329Z,14.98
2023-05-09T08:16:51.789Z,18.25
2023-05-09T08:19:18.222Z,19.27
2023-05-09T08:21:44.678Z,18.17
2023-05-09T08:24:11.126Z,13.50
2023-05-09T08:26:37.615Z,10.90
2023-05-09T08:29:04.114Z,17.17
2023-05-09T08:31:30.630Z,19.15
2023-05-09T08:33:57.154Z,16.90
2023-05-09T08:36:23.634Z,17.30
2023-05-09T08:38:50.358Z,15.82
2023-05-09T08:41:17.126Z,18.15
2023-05-09T08:43:44.333Z,17.63
2023-05-09T08:46:12.111Z,15.95
2023-05-09T08:48:39.719Z,17.77
2023-05-09T08:51:07.397Z,14.98
2023-05-09T08:53:34.782Z,18.17
2023-05-09T08:56:02.703Z,16.40
2023-05-09T08:58:30.496Z,8.38
2023-05-09T09:00:57.142Z,9.27
2023-05-09T09:03:25.574Z,11.65
2023-05-09T09:05:53.710Z,13.98
2023-05-09T09:08:21.632Z,13.45
2023-05-09T09:10:48.377Z,15.02
2023-05-09T09:13:15.600Z,16.25
2023-05-09T09:15:45.242Z,15.70
2023-05-09T09:18:16.225Z,9.00
2023-05-09T09:20:49.877Z,13.25
2023-05-09T09:23:21.076Z,14.45
2023-05-09T09:25:48.313Z,11.88
2023-05-09T09:28:15.388Z,8.93
2023-05-09T09:30:47.522Z,5.53
2023-05-09T09:33:24.967Z,14.20
2023-05-09T09:35:52.990Z,10.25
2023-05-09T09:38:20.897Z,12.98
2023-05-09T09:40:55.410Z,8.02
2023-05-09T09:43:29.151Z,15.23
2023-05-09T09:45:57.033Z,12.60
2023-05-09T09:48:30.782Z,10.95
2023-05-09T09:50:57.310Z,8.48
2023-05-09T09:53:27.033Z,9.40
2023-05-09T09:55:53.898Z,10.30
2023-05-09T09:58:22.158Z,8.90
2023-05-09T10:01:07.942Z,8.20
2023-05-09T10:03:41.871Z,4.15
2023-05-09T10:06:13.433Z,2.60
2023-05-09T10:08:41.099Z,10.43
2023-05-09T10:11:08.912Z,5.43
2023-05-09T10:13:37.400Z,8.00
2023-05-09T10:16:05.532Z,5.35
2023-05-09T10:18:32.510Z,9.20
2023-05-09T10:21:04.126Z,8.63
2023-05-09T10:23:32.803Z,5.03
2023-05-09T10:26:28.958Z,8.63
2023-05-09T10:28:57.478Z,11.95
2023-05-09T10:31:29.360Z,10.30
2023-05-09T10:33:56.202Z,11.65
2023-05-09T10:36:23.985Z,10.40
2023-05-09T10:38:53.946Z,10.02
2023-05-09T10:41:22.108Z,7.43
2023-05-09T10:43:48.826Z,8.90
2023-05-09T10:46:16.305Z,8.40
2023-05-09T10:48:43.661Z,8.98
2023-05-09T10:51:11.434Z,9.70
2023-05-09T10:53:47.888Z,12.45
2023-05-09T10:56:27.535Z,8.23
2023-05-09T10:58:54.728Z,10.00
2023-05-09T11:01:35.015Z,11.15
2023-05-09T11:04:16.576Z,10.45
2023-05-09T11:06:46.402Z,8.80
2023-05-09T11:09:35.445Z,8.30
2023-05-09T11:12:02.209Z,4.50
2023-05-09T11:14:41.338Z,12.85
2023-05-09T11:17:09.359Z,11.57
2023-05-09T11:19:45.002Z,12.70
2023-05-09T11:22:15.995Z,11.05
2023-05-09T11:24:47.244Z,6.00
2023-05-09T11:27:25.099Z,9.40
2023-05-09T11:29:59.329Z,9.55
2023-05-09T11:32:32.327Z,10.33
2023-05-09T11:35:18.632Z,12.55
2023-05-09T11:37:48.409Z,5.30
2023-05-09T11:40:17.334Z,8.13
2023-05-09T11:42:46.165Z,6.78
2023-05-09T11:45:15.859Z,9.07
2023-05-09T11:47:42.967Z,6.68
2023-05-09T11:50:11.611Z,4.40
2023-05-09T11:52:39.388Z,4.20
2023-05-09T11:55:12.057Z,11.20
2023-05-09T11:57:48.894Z,9.15
2023-05-09T12:00:17.220Z,7.45
2023-05-09T12:02:46.132Z,7.93
2023-05-09T12:05:15.320Z,11.48
2023-05-09T12:07:42.231Z,6.68
2023-05-09T12:10:14.763Z,6.10
2023-05-09T12:12:44.609Z,8.82
2023-05-09T12:15:13.390Z,3.78
2023-05-09T12:17:41.246Z,9.45
2023-05-09T12:20:09.000Z,4.95
2023-05-09T12:22:37.482Z,4.35
2023-05-09T12:25:10.211Z,7.18
2023-05-09T12:27:38.247Z,6.20
2023-05-09T12:30:10.379Z,4.82
2023-05-09T12:32:39.489Z,11.90
2023-05-09T12:35:10.617Z,5.13
2023-05-09T12:37:37.813Z,4.47
2023-05-09T12:40:13.042Z,6.38
2023-05-09T12:42:43.172Z,6.15
2023-05-09T12:45:10.250Z,4.15
2023-05-09T12:47:41.892Z,3.78
2023-05-09T12:50:11.542Z,5.15
2023-05-09T12:52:54.677Z,6.45
2023-05-09T12:55:28.933Z,6.10
2023-05-09T12:58:03.513Z,6.38
2023-05-09T13:00:42.411Z,5.03
2023-05-09T13:03:41.399Z,8.18
2023-05-09T13:06:13.495Z,8.07
2023-05-09T13:08:40.998Z,4.70
2023-05-09T13:11:16.698Z,3.70
2023-05-09T13:13:43.789Z,6.00
2023-05-09T13:16:11.212Z,4.07
2023-05-09T13:18:39.333Z,5.60
2023-05-09T13:21:05.849Z,6.75
2023-05-09T13:23:32.409Z,5.93
2023-05-09T13:25:58.921Z,4.40
2023-05-09T13:28:25.497Z,5.57
2023-05-09T13:30:51.986Z,4.70
2023-05-09T13:33:25.996Z,3.80
2023-05-09T13:35:53.368Z,4.60
2023-05-09T13:38:19.852Z,5.45
2023-05-09T13:40:46.393Z,4.97
2023-05-09T13:43:12.924Z,3.75
2023-05-09T13:45:39.447Z,5.40
2023-05-09T13:48:06.337Z,7.53
2023-05-09T13:50:32.835Z,3.20
2023-05-09T13:52:59.329Z,5.30
2023-05-09T13:55:27.309Z,4.20
2023-05-09T13:57:53.814Z,7.68
2023-05-09T14:00:21.522Z,5.45
2023-05-09T14:02:48.364Z,4.50
2023-05-09T14:05:15.054Z,6.55
2023-05-09T14:07:42.801Z,4.65
2023-05-09T14:10:11.753Z,5.35
2023-05-09T14:12:39.787Z,4.45
2023-05-09T14:15:09.528Z,12.38
2023-05-09T14:17:36.096Z,14.50
2023-05-09T14:20:02.644Z,21.13
2023-05-09T14:22:29.177Z,11.77
2023-05-09T14:24:57.367Z,13.10
2023-05-09T14:27:24.155Z,14.38
2023-05-09T14:29:51.021Z,13.75
2023-05-09T14:32:17.579Z,13.20
2023-05-09T14:34:44.237Z,12.80
2023-05-09T14:37:14.337Z,11.30
2023-05-09T14:39:45.148Z,11.07
2023-05-09T14:42:14.099Z,12.25
2023-05-09T14:44:41.372Z,9.63
2023-05-09T14:47:08.890Z,6.57
2023-05-09T14:49:36.861Z,8.43
2023-05-09T14:52:03.559Z,13.10
2023-05-09T14:54:30.096Z,12.32
2023-05-09T14:56:57.217Z,12.80
2023-05-09T14:59:23.731Z,11.52
2023-05-09T15:01:51.717Z,12.95
2023-05-09T15:04:18.310Z,13.00
2023-05-09T15:06:45.420Z,14.00
2023-05-09T15:09:12.996Z,18.25
2023-05-09T15:11:47.885Z,12.48
2023-05-09T15:14:15.319Z,17.75
2023-05-09T15:16:42.281Z,8.35
2023-05-09T15:19:08.861Z,19.88
2023-05-09T15:21:35.422Z,17.15
2023-05-09T15:24:02.381Z,19.25
2023-05-09T15:26:29.273Z,18.15
2023-05-09T15:28:55.852Z,17.17
2023-05-09T15:31:23.990Z,17.60
2023-05-09T15:33:50.928Z,19.90
2023-05-09T15:36:17.483Z,22.25
2023-05-09T15:38:48.340Z,21.38
2023-05-09T15:41:15.633Z,19.80
2023-05-09T15:43:42.179Z,20.25
2023-05-09T15:46:08.833Z,19.63
2023-05-09T15:48:35.325Z,21.35
2023-05-09T15:51:02.701Z,20.73
2023-05-09T15:53:29.445Z,23.30
2023-05-09T15:55:56.945Z,19.63
2023-05-09T15:58:23.555Z,22.60
2023-05-09T16:00:50.122Z,22.52
2023-05-09T16:03:16.908Z,24.92
2023-05-09T16:05:43.829Z,23.52
2023-05-09T16:08:10.630Z,21.65
2023-05-09T16:10:37.146Z,19.13
2023-05-09T16:13:03.956Z,17.50
2023-05-09T16:15:30.512Z,17.70
2023-05-09T16:17:56.938Z,17.60
2023-05-09T16:20:23.527Z,18.42
2023-05-09T16:22:50.037Z,18.90
2023-05-09T16:25:16.847Z,17.40
2023-05-09T16:27:43.530Z,17.67
2023-05-09T16:30:10.472Z,21.08
2023-05-09T16:32:36.974Z,21.55
2023-05-09T16:35:04.179Z,17.95
2023-05-09T16:37:31.053Z,19.02
2023-05-09T16:39:59.431Z,16.92
2023-05-09T16:42:26.058Z,18.85
2023-05-09T16:44:52.628Z,19.35
2023-05-09T16:47:19.133Z,20.75
2023-05-09T16:49:45.941Z,22.48
2023-05-09T16:52:12.449Z,21.13
2023-05-09T16:54:39.019Z,21.95
2023-05-09T16:57:05.616Z,20.92
2023-05-09T16:59:32.883Z,20.58
2023-05-09T17:01:59.635Z,23.27
2023-05-09T17:04:26.567Z,20.67
2023-05-09T17:06:53.276Z,24.60
2023-05-09T17:09:19.850Z,21.48
2023-05-09T17:11:46.478Z,21.10
2023-05-09T17:14:12.925Z,26.33
2023-05-09T17:16:39.489Z,23.10
2023-05-09T17:19:06.179Z,26.95
2023-05-09T17:21:32.835Z,22.65
2023-05-09T17:23:59.292Z,27.00
2023-05-09T17:26:25.976Z,26.50
2023-05-09T17:28:52.526Z,22.67
2023-05-09T17:31:19.165Z,24.10
2023-05-09T17:33:45.772Z,17.17
2023-05-09T17:36:13.455Z,20.15
2023-05-09T17:38:39.928Z,21.02
2023-05-09T17:41:07.088Z,20.33
2023-05-09T17:43:34.236Z,23.85
2023-05-09T17:46:00.754Z,19.38
2023-05-09T17:48:27.262Z,21.38
2023-05-09T17:50:54.356Z,20.48
2023-05-09T17:53:20.899Z,19.88
2023-05-09T17:55:47.755Z,22.05
2023-05-09T17:58:15.095Z,25.10
2023-05-09T18:00:41.797Z,24.08
2023-05-09T18:03:08.361Z,27.17
2023-05-09T18:05:34.920Z,23.95
2023-05-09T18:08:01.501Z,25.60
2023-05-09T18:10:28.968Z,26.25
2023-05-09T18:12:56.052Z,24.50
2023-05-09T18:15:24.297Z,21.40
2023-05-09T18:17:50.819Z,26.90
2023-05-09T18:20:17.722Z,24.05
2023-05-09T18:22:44.378Z,24.33
2023-05-09T18:25:10.811Z,23.17
2023-05-09T18:27:37.341Z,27.90
2023-05-09T18:30:04.885Z,24.27
2023-05-09T18:32:32.425Z,22.27
2023-05-09T18:34:59.008Z,20.08
2023-05-09T18:37:25.553Z,21.27
2023-05-09T18:39:52.065Z,20.75
2023-05-09T18:42:19.194Z,22.05
2023-05-09T18:44:45.981Z,22.20
2023-05-09T18:47:12.638Z,21.25
2023-05-09T18:49:39.246Z,17.60
2023-05-09T18:52:05.858Z,15.95
2023-05-09T18:54:32.391Z,17.63
2023-05-09T18:56:58.883Z,16.83
2023-05-09T18:59:25.385Z,17.48
2023-05-09T19:01:51.997Z,17.40
2023-05-09T19:04:19.514Z,16.00
2023-05-09T19:06:47.259Z,14.95
2023-05-09T19:09:13.790Z,14.90
2023-05-09T19:11:40.262Z,14.88
2023-05-09T19:14:06.976Z,15.13
2023-05-09T19:16:33.526Z,15.57
2023-05-09T19:19:01.124Z,14.82
2023-05-09T19:21:28.341Z,16.38
2023-05-09T19:23:54.929Z,20.45
2023-05-09T19:26:22.029Z,18.80
2023-05-09T19:28:48.613Z,17.20
2023-05-09T19:31:16.174Z,19.58
2023-05-09T19:33:45.473Z,20.27
2023-05-09T19:36:12.284Z,16.50
2023-05-09T19:38:39.249Z,19.33
2023-05-09T19:41:05.912Z,16.42
2023-05-09T19:43:32.526Z,21.10
2023-05-09T19:45:59.882Z,18.95
2023-05-09T19:48:26.554Z,17.92
2023-05-09T19:51:00.722Z,18.88
2023-05-09T19:53:27.338Z,17.15
2023-05-09T19:55:53.961Z,16.30
2023-05-09T19:58:20.648Z,18.17
2023-05-09T20:00:48.311Z,15.75
2023-05-09T20:03:14.999Z,20.23
2023-05-09T20:05:41.691Z,20.63
2023-05-09T20:08:08.176Z,14.68
2023-05-09T20:10:34.850Z,19.42
2023-05-09T20:13:02.393Z,11.98
2023-05-09T20:15:28.915Z,10.25
2023-05-09T20:17:55.523Z,12.55
2023-05-09T20:20:22.097Z,15.25
2023-05-09T20:22:48.631Z,8.25
2023-05-09T20:25:15.384Z,8.07
2023-05-09T20:27:41.920Z,9.90
2023-05-09T20:30:08.924Z,7.45
2023-05-09T20:32:35.489Z,6.50
2023-05-09T20:35:02.250Z,7.88
2023-05-09T20:37:28.748Z,6.55
2023-05-09T20:39:55.563Z,6.65
2023-05-09T20:42:23.223Z,4.85
2023-05-09T20:44:51.524Z,8.23
2023-05-09T20:47:18.059Z,8.38
2023-05-09T20:49:44.536Z,7.38
2023-05-09T20:52:10.995Z,5.78
2023-05-09T20:54:37.650Z,9.95
2023-05-09T20:57:04.183Z,8.65
2023-05-09T20:59:30.748Z,11.55
2023-05-09T21:01:57.434Z,12.32
2023-05-09T21:04:24.078Z,13.57
2023-05-09T21:06:50.559Z,12.35
2023-05-09T21:09:17.148Z,12.65
2023-05-09T21:11:43.642Z,12.93
2023-05-09T21:14:10.241Z,10.75
2023-05-09T21:16:36.829Z,6.53
2023-05-09T21:19:05.107Z,13.07
2023-05-09T21:21:32.973Z,12.60
2023-05-09T21:24:03.063Z,15.25
2023-05-09T21:26:30.040Z,10.95
2023-05-09T21:28:56.589Z,17.15
2023-05-09T21:31:23.203Z,9.70
2023-05-09T21:33:49.813Z,9.38
2023-05-09T21:36:16.326Z,16.23
2023-05-09T21:38:42.774Z,8.02
2023-05-09T21:41:10.169Z,10.32
2023-05-09T21:43:37.708Z,15.80
2023-05-09T21:46:05.903Z,14.40
2023-05-09T21:48:32.764Z,12.20
2023-05-09T21:51:03.308Z,15.30
2023-05-09T21:53:29.913Z,11.25
2023-05-09T21:55:56.405Z,10.40
2023-05-09T21:58:22.886Z,6.82
2023-05-09T22:00:49.450Z,12.23
2023-05-09T22:03:16.148Z,12.35
2023-05-09T22:05:42.647Z,16.30
2023-05-09T22:08:09.228Z,16.75
2023-05-09T22:10:37.442Z,16.52
2023-05-09T22:13:03.981Z,16.80
2023-05-09T22:15:30.594Z,8.43
2023-05-09T22:17:57.187Z,5.63
2023-05-09T22:20:23.802Z,17.05
2023-05-09T22:22:50.326Z,20.63
2023-05-09T22:25:16.978Z,17.20
2023-05-09T22:27:43.639Z,10.45
2023-05-09T22:30:12.336Z,13.27
2023-05-09T22:32:39.286Z,14.80
2023-05-09T22:35:06.183Z,16.83
2023-05-09T22:37:32.758Z,16.95
2023-05-09T22:40:01.316Z,14.88
2023-05-09T22:42:29.369Z,11.93
2023-05-09T22:44:56.008Z,15.38
2023-05-09T22:47:22.541Z,16.80
2023-05-09T22:49:49.482Z,19.33
2023-05-09T22:52:16.069Z,22.02
2023-05-09T22:54:42.683Z,18.05
2023-05-09T22:57:09.698Z,18.10
2023-05-09T22:59:36.992Z,16.65
2023-05-09T23:02:04.748Z,22.48
2023-05-09T23:04:31.321Z,23.85
2023-05-09T23:06:57.828Z,14.32
2023-05-09T23:09:24.433Z,16.15
2023-05-09T23:11:51.561Z,20.48
2023-05-09T23:14:18.066Z,16.73
2023-05-09T23:16:44.557Z,20.75
2023-05-09T23:19:11.017Z,9.75
2023-05-09T23:21:37.582Z,18.77
2023-05-09T23:24:04.357Z,20.95
2023-05-09T23:26:30.938Z,8.75
2023-05-09T23:28:57.397Z,13.35
2023-05-09T23:31:23.973Z,11.95
2023-05-09T23:33:50.521Z,21.55
2023-05-09T23:36:17.324Z,18.55
2023-05-09T23:38:43.833Z,18.10
2023-05-09T23:41:10.359Z,20.77
2023-05-09T23:43:37.680Z,20.80
2023-05-09T23:46:04.331Z,12.18
2023-05-09T23:48:30.939Z,3.15
2023-05-09T23:50:57.442Z,22.05
2023-05-09T23:53:23.912Z,15.20
2023-05-09T23:55:50.562Z,16.88
2023-05-09T23:58:17.068Z,18.95
